Latest Weather Observations for Borroloola

IDD60801

Issued at 7:35 pm CST Thursday 27 November 2014 (issued every 30 minutes, with the page automatically refreshed every 10 minutes)

About weather observations | Map of weather stations | Latest weather observations for NT | Other Formats
Station Details ID: 014723 Name: BORROLOOLA AIRPORT Lat: -16.08 Lon: 136.30 Height: 16.1 m
Data from the previous 72 hours. | See also: Recent months at Borroloola
Date/Time
CST
Temp
°C
App
Temp
°C
Dew
Point
Rel
Hum
%
Delta-T
°C
Wind Press
QNH
hPa
Press
MSL
hPa
Rain
since 9 am
mm
Dir
 
Spd
km/h
Gust
km/h
Spd
kts
Gust
kts
27/07:30pm 30.3 32.8 21.1 58 6.2 NNE 9 11 5 6 1008.2 1008.1 0.0
27/07:00pm 30.9 32.4 20.5 54 6.9 NNE 13 17 7 9 1007.8 1007.7 0.0
27/06:30pm 31.7 32.4 19.7 49 7.9 NNE 15 20 8 11 1007.5 1007.4 0.0
27/06:00pm 32.5 32.1 19.0 44 8.8 NNE 19 28 10 15 1007.1 1007.0 0.0
27/05:30pm 33.7 32.3 16.5 35 10.9 NE 19 30 10 16 1006.7 1006.6 0.0
27/05:00pm 34.8 33.2 16.6 33 11.6 NNE 20 30 11 16 1006.7 1006.6 0.0
27/04:30pm 34.7 33.1 16.5 33 11.6 NNE 20 32 11 17 1006.7 1006.6 0.0
27/04:00pm 35.4 32.5 17.1 33 11.8 N 28 32 15 17 1006.6 1006.5 0.0
27/03:30pm 35.4 34.4 18.0 35 11.3 NE 20 30 11 16 1006.7 1006.6 0.0
27/03:00pm 36.8 36.2 18.8 34 11.9 NNE 20 32 11 17 1006.9 1006.8 0.0
27/02:30pm 36.4 35.6 18.5 35 11.8 NE 20 32 11 17 1007.3 1007.2 0.0
27/02:00pm 36.8 36.2 18.4 34 12.1 NNE 19 30 10 16 1007.2 1007.1 0.0
27/01:30pm 37.3 36.5 19.3 35 12.0 NE 22 30 12 16 1007.6 1007.5 0.0
27/01:00pm 36.7 35.8 17.8 32 12.3 NE 19 30 10 16 1008.0 1007.9 0.0
27/12:30pm 35.0 34.5 18.6 38 10.8 NNE 19 24 10 13 1008.3 1008.2 0.0
27/12:00pm 36.1 35.8 18.2 34 11.7 N 17 20 9 11 1008.5 1008.4 0.0
27/11:30am 35.1 35.2 19.9 41 10.1 NNE 19 24 10 13 1009.0 1008.9 0.0
27/11:00am 35.5 37.2 21.0 42 9.8 NE 13 20 7 11 1009.3 1009.2 0.0
27/10:30am 34.1 35.0 21.5 47 8.6 N 19 24 10 13 1009.7 1009.6 0.0
27/10:00am 33.7 36.2 21.8 49 8.1 NE 11 20 6 11 1009.9 1009.8 0.0
27/09:30am 32.6 35.6 20.8 49 7.9 N 6 17 3 9 1010.1 1010.0 0.0
27/09:00am 31.9 34.0 20.2 50 7.8 E 9 13 5 7 1010.1 1010.0 0.2
27/08:30am 30.9 33.5 20.5 54 6.9 SW 7 11 4 6 1009.8 1009.7 0.2
27/08:00am 29.8 33.0 21.2 60 5.7 W 6 9 3 5 1009.5 1009.4 0.2
27/07:30am 28.8 33.2 21.3 64 5.0 CALM 0 6 0 3 1009.5 1009.4 0.2
27/07:00am 28.1 32.9 22.1 70 4.0 CALM 0 0 0 0 1009.4 1009.3 0.2
27/06:30am 26.3 31.6 23.0 82 2.2 CALM 0 0 0 0 1009.1 1009.0 0.2
27/06:00am 25.3 30.4 22.6 85 1.8 CALM 0 0 0 0 1008.6 1008.5 0.2
27/05:30am 25.1 30.2 22.6 86 1.7 CALM 0 0 0 0 1008.3 1008.2 0.2
27/05:00am 25.0 29.1 22.3 85 1.8 NW 4 6 2 3 1007.9 1007.8 0.2
27/04:30am 25.0 28.7 22.5 86 1.7 NW 7 7 4 4 1007.7 1007.6 0.2
27/04:00am 25.0 29.9 22.3 85 1.8 CALM 0 0 0 0 1007.6 1007.5 0.2
27/03:30am 25.2 30.2 22.5 85 1.8 CALM 0 0 0 0 1007.5 1007.4 0.2
27/03:00am 25.6 30.7 22.7 84 2.0 CALM 0 6 0 3 1007.6 1007.5 0.2
27/02:30am 25.5 29.0 22.2 82 2.2 SSW 7 11 4 6 1007.8 1007.7 0.2
27/02:00am 26.0 31.0 22.5 81 2.4 CALM 0 0 0 0 1008.0 1007.9 0.2
27/01:30am 26.0 30.8 22.1 79 2.6 CALM 0 0 0 0 1008.3 1008.2 0.2
27/01:00am 26.5 31.1 21.7 75 3.2 CALM 0 0 0 0 1008.5 1008.4 0.2
27/12:30am 27.4 30.9 21.9 72 3.7 NNE 6 7 3 4 1009.1 1009.0 0.2
27/12:00am 27.2 30.9 22.2 74 3.4 NE 6 7 3 4 1009.3 1009.2 0.2
 
Date/Time
CST
Temp
°C
App
Temp
°C
Dew
Point
Rel
Hum
%
Delta-T
°C
Wind Press
QNH
hPa
Press
MSL
hPa
Rain
since 9 am
mm
Dir
 
Spd
km/h
Gust
km/h
Spd
kts
Gust
kts
26/11:30pm 27.6 31.4 21.6 70 4.0 SE 4 7 2 4 1009.6 1009.5 0.2
26/11:00pm 27.6 30.7 21.4 69 4.1 S 7 9 4 5 1009.8 1009.7 0.2
26/10:30pm 27.9 30.1 21.9 70 4.0 SSW 13 15 7 8 1009.7 1009.6 0.2
26/10:00pm 28.2 32.8 21.7 68 4.4 CALM 0 0 0 0 1009.0 1008.9 0.2
26/09:30pm 28.5 31.8 20.8 63 5.1 NE 4 7 2 4 1008.8 1008.7 0.2
26/09:00pm 28.6 30.9 20.6 62 5.3 NE 9 11 5 6 1008.3 1008.2 0.2
26/08:30pm 28.9 31.1 20.4 60 5.6 NNE 9 13 5 7 1007.9 1007.8 0.2
26/08:00pm 29.6 31.6 19.9 56 6.4 NE 9 13 5 7 1007.8 1007.7 0.2
26/07:30pm 30.1 32.5 20.1 55 6.6 NNE 7 11 4 6 1007.4 1007.3 0.2
26/07:00pm 30.5 33.8 21.8 59 5.9 NE 7 9 4 5 1006.9 1006.8 0.2
26/06:30pm 30.6 33.5 21.7 59 6.0 NNE 9 13 5 7 1006.5 1006.4 0.2
26/06:00pm 31.0 33.6 22.0 58 6.1 NNE 11 15 6 8 1006.4 1006.3 0.2
26/05:30pm 30.8 32.7 22.1 59 5.9 N 15 19 8 10 1006.4 1006.3 0.2
26/05:00pm 30.8 32.7 22.7 62 5.5 N 17 24 9 13 1006.5 1006.4 0.2
26/04:30pm 31.2 33.0 23.3 63 5.5 N 19 24 10 13 1006.4 1006.3 0.2
26/04:00pm 31.8 33.4 22.2 56 6.5 N 17 22 9 12 1006.2 1006.1 0.2
26/03:30pm 32.1 33.0 21.9 54 6.9 N 20 28 11 15 1006.4 1006.3 0.2
26/03:00pm 32.4 33.7 21.6 53 7.3 NNE 17 24 9 13 1006.6 1006.5 0.2
26/02:30pm 33.4 34.3 21.9 51 7.8 NNE 20 28 11 15 1006.7 1006.6 0.2
26/02:00pm 34.8 34.9 20.4 43 9.7 NNE 20 33 11 18 1006.5 1006.4 0.2
26/01:30pm 35.7 34.8 18.3 35 11.4 ENE 20 28 11 15 1006.9 1006.8 0.2
26/01:00pm 35.1 34.6 19.1 39 10.5 NNE 20 28 11 15 1007.2 1007.1 0.2
26/12:30pm 36.1 36.2 19.1 36 11.3 NE 17 28 9 15 1007.6 1007.5 0.2
26/12:00pm 34.5 36.2 19.3 40 10.0 NNE 9 20 5 11 1008.0 1007.9 0.2
26/11:30am 34.5 37.5 21.2 46 9.0 SW 7 20 4 11 1008.2 1008.1 0.2
26/11:00am 33.6 36.5 20.7 46 8.7 NE 6 17 3 9 1008.7 1008.6 0.2
26/10:30am 32.6 35.4 20.5 49 8.1 N 6 13 3 7 1009.3 1009.2 0.2
26/10:00am 32.5 35.4 20.7 49 7.9 SE 6 11 3 6 1009.5 1009.4 0.2
26/09:30am 30.8 33.4 20.1 53 7.1 NE 6 9 3 5 1009.7 1009.6 0.2
26/09:00am 30.7 34.1 20.9 56 6.5 SSE 4 11 2 6 1009.7 1009.6 4.0
26/08:30am 29.8 32.6 20.9 59 5.9 S 7 11 4 6 1009.9 1009.8 4.0
26/08:00am 29.0 31.8 21.5 64 5.0 S 9 13 5 7 1009.6 1009.5 4.0
26/07:30am 27.6 30.9 21.9 71 3.8 S 7 9 4 5 1009.0 1008.9 4.0
26/07:00am 26.8 30.5 22.6 78 2.8 SSW 7 11 4 6 1008.7 1008.6 4.0
26/06:30am 25.8 30.1 23.7 88 1.4 W 7 9 4 5 1008.6 1008.5 4.0
26/06:00am 25.2 29.9 24.3 95 0.6 NW 7 9 4 5 1008.1 1008.0 4.0
26/05:30am 25.1 31.1 24.2 95 0.6 CALM 0 0 0 0 1007.8 1007.7 4.0
26/05:00am 25.0 30.8 24.0 94 0.7 CALM 0 0 0 0 1007.6 1007.5 4.0
26/04:30am 25.3 31.3 24.3 94 0.7 CALM 0 0 0 0 1007.3 1007.2 4.0
26/04:00am 25.2 31.0 24.0 93 0.8 CALM 0 2 0 1 1006.9 1006.8 4.0
26/03:30am 25.4 31.4 24.2 93 0.8 CALM 0 0 0 0 1007.0 1006.9 4.0
26/03:00am 25.5 31.5 24.3 93 0.8 CALM 0 0 0 0 1007.1 1007.0 4.0
26/02:30am 25.2 30.7 24.0 93 0.8 S 2 9 1 5 1007.3 1007.2 4.0
26/02:00am 25.5 31.4 24.1 92 1.0 CALM 0 6 0 3 1007.6 1007.5 4.0
26/01:30am 25.4 31.2 24.0 92 1.0 CALM 0 0 0 0 1007.8 1007.7 4.0
26/01:00am 25.6 31.6 24.2 92 1.0 CALM 0 0 0 0 1008.1 1008.0 4.0
26/12:30am 25.8 31.9 24.4 92 1.0 CALM 0 7 0 4 1008.6 1008.5 4.0
26/12:00am 25.7 30.4 23.9 90 1.2 S 6 7 3 4 1009.0 1008.9 4.0
 
Date/Time
CST
Temp
°C
App
Temp
°C
Dew
Point
Rel
Hum
%
Delta-T
°C
Wind Press
QNH
hPa
Press
MSL
hPa
Rain
since 9 am
mm
Dir
 
Spd
km/h
Gust
km/h
Spd
kts
Gust
kts
25/11:30pm 26.0 30.3 24.2 90 1.2 SSE 9 9 5 5 1009.1 1009.0 4.0
25/11:00pm 26.1 31.9 24.0 88 1.4 CALM 0 0 0 0 1009.1 1009.0 4.0
25/10:30pm 26.6 32.5 24.1 86 1.7 CALM 0 0 0 0 1009.0 1008.9 4.0
25/10:00pm 27.0 32.6 23.5 81 2.4 CALM 0 0 0 0 1008.8 1008.7 4.0
25/09:30pm 27.1 32.0 23.6 81 2.4 NNE 4 7 2 4 1008.5 1008.4 4.0
25/09:00pm 27.0 33.0 24.3 85 1.9 CALM 0 0 0 0 1008.6 1008.5 4.0
25/08:30pm 27.0 33.1 24.5 86 1.7 CALM 0 0 0 0 1008.5 1008.4 4.0
25/08:00pm 26.9 32.9 24.2 85 1.9 CALM 0 0 0 0 1008.3 1008.2 4.0
25/07:30pm 27.2 32.3 24.1 83 2.1 E 4 7 2 4 1007.9 1007.8 4.0
25/07:00pm 26.9 32.4 23.4 81 2.4 CALM 0 0 0 0 1007.2 1007.1 4.0
25/06:30pm 27.7 31.9 23.1 76 3.1 ENE 6 7 3 4 1006.6 1006.5 4.0
25/06:00pm 27.8 31.7 23.0 75 3.3 NE 7 9 4 5 1006.6 1006.5 4.0
25/05:30pm 28.2 32.8 22.4 71 3.9 NE 2 9 1 5 1006.7 1006.6 4.0
25/05:00pm 27.4 31.8 22.8 76 3.1 E 4 7 2 4 1006.6 1006.5 4.0
25/04:30pm 26.1 30.2 23.2 84 2.0 E 7 11 4 6 1006.9 1006.8 4.0
25/04:00pm 25.5 29.3 22.8 85 1.8 NW 7 11 4 6 1007.4 1007.3 4.0
25/03:30pm 24.8 28.1 22.5 87 1.5 WNW 9 15 5 8 1007.4 1007.3 4.0
25/03:00pm 24.4 27.5 21.1 82 2.2 ENE 6 11 3 6 1008.5 1008.4 3.6
25/02:45pm 24.1 26.8 21.4 85 1.8 E 9 13 5 7 1008.9 1008.8 3.6
25/02:30pm 23.8 19.1 19.5 77 2.8 ENE 43 76 23 41 1007.9 1007.8 0.4
25/02:28pm 24.3 20.0 18.7 71 3.6 ENE 39 76 21 41 1007.4 1007.3 0.0
25/02:22pm 29.4 27.4 19.1 54 6.7 ENE 28 52 15 28 1007.8 1007.7 0.0
25/02:00pm 33.7 35.9 21.2 48 8.4 NNW 11 20 6 11 1007.2 1007.1 0.0
25/01:30pm 33.9 35.8 21.3 47 8.5 NNW 13 19 7 10 1007.8 1007.7 0.0
25/01:00pm 32.6 34.7 22.4 55 7.0 N 15 19 8 10 1008.2 1008.1 0.0
25/12:43pm 28.9 27.5 20.4 60 5.6 NNE 28 37 15 20 1008.6 1008.5 0.0
25/12:30pm 32.7 35.0 20.6 49 8.1 NNW 9 19 5 10 1008.6 1008.5 0.0
25/12:00pm 32.8 34.5 21.0 50 7.9 NE 13 17 7 9 1008.9 1008.8 0.0
25/11:30am 33.3 35.9 20.4 46 8.6 ESE 7 15 4 8 1009.1 1009.0 0.0
25/11:00am 32.9 34.7 21.1 50 7.9 NNE 13 20 7 11 1009.7 1009.6 0.0
25/10:30am 32.4 34.6 19.6 46 8.4 SE 7 11 4 6 1009.7 1009.6 0.0
25/10:00am 31.0 32.6 20.0 52 7.3 NNE 11 15 6 8 1009.8 1009.7 0.0
25/09:30am 30.0 32.0 20.8 57 6.1 NNE 11 15 6 8 1009.8 1009.7 0.0
25/09:00am 28.8 31.7 21.8 66 4.7 NE 9 11 5 6 1009.9 1009.8 10.2
25/08:30am 27.8 30.6 22.3 72 3.7 NNE 11 15 6 8 1010.2 1010.1 10.2
25/08:00am 27.4 30.7 22.6 75 3.3 NNE 9 13 5 7 1010.2 1010.1 10.2
25/07:30am 26.7 31.1 22.1 76 3.1 SE 2 6 1 3 1009.8 1009.7 10.2
25/07:00am 26.1 30.7 21.7 77 2.9 CALM 0 0 0 0 1009.5 1009.4 10.2
25/06:30am 25.3 29.2 22.6 85 1.8 SE 6 11 3 6 1009.1 1009.0 10.2
25/06:00am 24.4 29.4 22.5 89 1.3 CALM 0 0 0 0 1008.3 1008.2 10.2
25/05:30am 24.3 29.1 22.2 88 1.4 CALM 0 0 0 0 1008.0 1007.9 10.2
25/05:00am 24.4 28.1 22.3 88 1.4 NW 6 9 3 5 1008.2 1008.1 10.2
25/04:30am 24.5 27.3 21.6 84 1.9 WSW 9 13 5 7 1007.4 1007.3 10.2
25/04:00am 24.4 27.2 21.5 84 1.9 W 9 11 5 6 1007.5 1007.4 10.2
25/03:30am 24.3 26.6 21.4 84 1.9 NNW 11 13 6 7 1007.7 1007.6 10.2
25/03:00am 24.4 26.6 21.1 82 2.2 NNE 11 17 6 9 1008.0 1007.9 10.0
25/02:30am 25.5 28.5 21.2 77 2.8 ENE 7 13 4 7 1008.6 1008.5 8.4
25/02:00am 25.3 27.7 22.2 83 2.1 ENE 13 19 7 10 1008.9 1008.8 8.2
25/01:30am 28.4 31.0 23.3 74 3.5 E 15 22 8 12 1009.0 1008.9 0.4
25/01:00am 29.5 32.3 23.0 68 4.4 E 13 17 7 9 1009.2 1009.1 0.0
25/12:30am 29.2 32.3 22.9 69 4.3 NE 11 17 6 9 1009.1 1009.0 0.0
25/12:00am 29.4 32.0 23.3 69 4.2 NE 15 20 8 11 1009.6 1009.5 0.0
 
Date/Time
CST
Temp
°C
App
Temp
°C
Dew
Point
Rel
Hum
%
Delta-T
°C
Wind Press
QNH
hPa
Press
MSL
hPa
Rain
since 9 am
mm
Dir
 
Spd
km/h
Gust
km/h
Spd
kts
Gust
kts
24/11:30pm 29.3 32.0 23.5 71 4.0 NE 15 20 8 11 1009.7 1009.6 0.0
24/11:00pm 29.2 32.1 22.4 66 4.6 NE 11 17 6 9 1009.7 1009.6 0.0
24/10:30pm 28.7 31.6 21.0 63 5.1 NNE 7 11 4 6 1009.9 1009.8 0.0
24/10:00pm 28.3 31.2 20.6 63 5.1 NNE 6 7 3 4 1010.0 1009.9 0.0
24/09:30pm 28.0 30.4 20.8 65 4.8 NNW 9 13 5 7 1009.7 1009.6 0.0
24/09:00pm 28.2 30.2 20.0 61 5.4 E 9 13 5 7 1009.2 1009.1 0.0
24/08:30pm 28.1 29.9 19.6 60 5.5 NW 9 11 5 6 1008.9 1008.8 0.0
24/08:00pm 28.0 31.5 19.5 60 5.5 CALM 0 6 0 3 1008.4 1008.3 0.0

Other Formats:

Comma delimited format used in spreadsheet applications
http://www.bom.gov.au/fwo/IDD60801/IDD60801.94152.axf

JavaScript Object Notation format (JSON) in row-major order
http://www.bom.gov.au/fwo/IDD60801/IDD60801.94152.json